Time;durP1;ratioP1;P1;durP2;ratioP2;P2;SDS_P1;SDS_P2;PMS_P1;PMS_P2;Temp;Humidity;BMP_temperature;BMP_pressure;BME280_temperature;BME280_humidity;BME280_pressure;Samples;Min_cycle;Max_cycle;Signal;HPM_P1;HPM_P2
2023/10/08 00:03:09;;;;;;;;;;;;;;;21.75;30.47;100490.47;5420639;32;35238;-70
2023/10/08 00:06:14;;;;;;;;;;;;;;;22.30;30.00;100488.50;5434092;32;35050;-66
2023/10/08 00:09:16;;;;;;;;;;;;;;;21.86;30.31;100477.06;5421955;32;34829;-69
2023/10/08 00:12:19;;;;;;;;;;;;;;;22.21;30.13;100475.88;5417423;32;35483;-70
2023/10/08 00:15:25;;;;;;;;;;;;;;;21.67;30.72;100468.88;5407111;32;36085;-65
2023/10/08 00:18:27;;;;;;;;;;;;;;;22.03;30.30;100473.81;5415964;32;35488;-71
2023/10/08 00:21:33;;;;;;;;;;;;;;;22.03;30.36;100463.09;5433893;32;34255;-66
2023/10/08 00:24:35;;;;;;;;;;;;;;;21.57;31.04;100456.28;5422047;32;35674;-66
2023/10/08 00:27:38;;;;;;;;;;;;;;;21.80;30.77;100453.50;5425491;32;34271;-70
2023/10/08 00:30:41;;;;;;;;;;;;;;;22.13;30.19;100456.00;5428470;32;34492;-65
2023/10/08 00:33:44;;;;;;;;;;;;;;;22.56;29.72;100468.31;5405756;32;35068;-65
2023/10/08 00:36:47;;;;;;;;;;;;;;;22.54;29.86;100472.97;5416324;32;34993;-66
2023/10/08 00:39:49;;;;;;;;;;;;;;;22.28;30.28;100466.34;5416519;32;35456;-70
2023/10/08 00:42:56;;;;;;;;;;;;;;;22.45;29.89;100457.69;5425866;32;34530;-70
2023/10/08 00:45:59;;;;;;;;;;;;;;;21.77;30.79;100462.66;5424065;32;35394;-65
2023/10/08 00:49:19;;;;;;;;;;;;;;;21.70;30.93;100450.75;5419903;32;35215;-70
2023/10/08 00:52:30;;;;;;;;;;;;;;;21.58;31.48;100451.81;5430351;32;35440;-67
2023/10/08 00:55:33;;;;;;;;;;;;;;;21.60;31.00;100442.66;5414745;32;34288;-66
2023/10/08 00:58:36;;;;;;;;;;;;;;;21.74;31.13;100448.66;5433437;32;34869;-66
2023/10/08 01:01:39;;;;;;;;;;;;;;;22.61;29.77;100433.94;5421088;32;34913;-70
2023/10/08 01:04:43;;;;;;;;;;;;;;;22.03;30.63;100432.81;5430566;32;35192;-66
2023/10/08 01:07:48;;;;;;;;;;;;;;;22.12;30.48;100432.88;5415277;32;35617;-65
2023/10/08 01:11:00;;;;;;;;;;;;;;;22.02;30.98;100444.47;5404105;32;36653;-69
2023/10/08 01:14:07;;;;;;;;;;;;;;;21.61;31.46;100444.34;5426432;32;35279;-66
2023/10/08 01:21:34;;;;;;;;;;;;;;;21.61;31.75;100414.94;5400724;32;35131;-69
2023/10/08 01:24:36;;;;;;;;;;;;;;;22.28;30.71;100412.81;5405127;32;34605;-69
2023/10/08 01:27:38;;;;;;;;;;;;;;;21.85;31.49;100416.50;5388117;32;35279;-67
2023/10/08 01:30:47;;;;;;;;;;;;;;;21.70;31.67;100415.97;5405743;32;34620;-65
2023/10/08 01:33:56;;;;;;;;;;;;;;;22.15;31.10;100410.34;5400400;32;34326;-67
2023/10/08 01:37:03;;;;;;;;;;;;;;;21.54;32.06;100389.69;5402725;32;34745;-69
2023/10/08 01:40:06;;;;;;;;;;;;;;;21.23;32.63;100388.72;5403301;32;34626;-65
2023/10/08 01:43:09;;;;;;;;;;;;;;;22.00;31.57;100390.25;5396902;32;34851;-66
2023/10/08 01:46:12;;;;;;;;;;;;;;;21.45;32.46;100392.31;5404097;32;34332;-71
2023/10/08 01:49:15;;;;;;;;;;;;;;;20.95;33.35;100363.44;5402293;32;36318;-70
2023/10/08 01:56:24;;;;;;;;;;;;;;;21.00;33.31;100366.59;5421736;32;35739;-69
2023/10/08 01:59:26;;;;;;;;;;;;;;;21.30;33.05;100351.66;5419750;32;34974;-66
2023/10/08 02:02:28;;;;;;;;;;;;;;;21.63;32.58;100354.12;5428643;32;35041;-66
2023/10/08 02:05:30;;;;;;;;;;;;;;;21.82;32.34;100352.56;5423164;32;34797;-66
2023/10/08 02:08:33;;;;;;;;;;;;;;;21.22;33.58;100367.47;5427205;32;34153;-65
2023/10/08 02:11:43;;;;;;;;;;;;;;;21.09;33.76;100371.16;5409578;32;35544;-66
2023/10/08 02:14:45;;;;;;;;;;;;;;;21.70;32.88;100348.25;5408247;32;34899;-71
2023/10/08 02:17:48;;;;;;;;;;;;;;;21.49;33.20;100349.13;5409273;32;34460;-66
2023/10/08 02:20:51;;;;;;;;;;;;;;;21.18;33.50;100345.47;5417359;32;35038;-70
2023/10/08 02:23:53;;;;;;;;;;;;;;;21.28;33.64;100353.59;5433149;32;35002;-66
2023/10/08 02:26:57;;;;;;;;;;;;;;;20.83;34.58;100353.78;5405279;32;34710;-70
2023/10/08 02:29:59;;;;;;;;;;;;;;;21.31;33.82;100354.19;5429105;32;34334;-70
2023/10/08 02:33:01;;;;;;;;;;;;;;;21.53;33.54;100350.56;5399403;32;34801;-66
2023/10/08 02:36:04;;;;;;;;;;;;;;;21.84;33.05;100345.25;5411174;32;34092;-65
2023/10/08 02:39:25;;;;;;;;;;;;;;;21.55;33.77;100335.22;5427613;32;35027;-70
2023/10/08 02:42:27;;;;;;;;;;;;;;;21.83;33.70;100332.84;5418902;32;34420;-70
2023/10/08 02:45:30;;;;;;;;;;;;;;;22.05;33.23;100327.31;5422553;32;34704;-70
2023/10/08 02:48:34;;;;;;;;;;;;;;;22.27;32.82;100320.94;5427987;32;34897;-65
2023/10/08 02:51:40;;;;;;;;;;;;;;;21.41;34.39;100324.87;5426208;32;35097;-71
2023/10/08 02:54:43;;;;;;;;;;;;;;;21.60;34.26;100333.00;5420125;32;34264;-70
2023/10/08 02:57:45;;;;;;;;;;;;;;;20.74;36.14;100327.84;5413842;32;34801;-66
2023/10/08 03:00:48;;;;;;;;;;;;;;;21.43;34.91;100333.59;5432422;32;35003;-71
2023/10/08 03:03:54;;;;;;;;;;;;;;;21.46;34.89;100325.34;5422260;32;33417;-70
2023/10/08 03:06:56;;;;;;;;;;;;;;;21.41;35.08;100316.84;5422623;32;34853;-67
2023/10/08 03:10:06;;;;;;;;;;;;;;;21.20;35.70;100308.81;5421539;32;34874;-65
2023/10/08 03:13:10;;;;;;;;;;;;;;;21.77;34.77;100309.31;5417465;32;34824;-65
2023/10/08 03:16:13;;;;;;;;;;;;;;;21.58;35.14;100308.25;5422580;32;34621;-70
2023/10/08 03:19:18;;;;;;;;;;;;;;;21.39;35.44;100312.63;5416147;32;35308;-65
2023/10/08 03:22:20;;;;;;;;;;;;;;;21.95;34.71;100314.87;5426444;32;35235;-70
2023/10/08 03:25:24;;;;;;;;;;;;;;;21.86;34.38;100305.84;5424122;32;34296;-69
2023/10/08 03:28:27;;;;;;;;;;;;;;;21.60;34.97;100308.94;5405372;32;34214;-66
2023/10/08 03:31:44;;;;;;;;;;;;;;;21.28;35.37;100317.03;5425958;32;34581;-70
2023/10/08 03:34:48;;;;;;;;;;;;;;;21.23;35.31;100310.38;5422796;32;34853;-65
2023/10/08 03:37:50;;;;;;;;;;;;;;;20.59;36.33;100305.91;5418713;32;34397;-65
2023/10/08 03:40:57;;;;;;;;;;;;;;;21.15;35.57;100289.62;5424719;32;34580;-65
2023/10/08 03:44:05;;;;;;;;;;;;;;;21.41;34.96;100289.28;5418519;32;34677;-66
2023/10/08 03:47:10;;;;;;;;;;;;;;;20.99;35.60;100279.38;5423274;32;35196;-65
2023/10/08 03:50:17;;;;;;;;;;;;;;;21.43;34.85;100273.94;5422847;32;34524;-66
2023/10/08 03:53:22;;;;;;;;;;;;;;;21.42;34.95;100265.06;5424136;32;34936;-69
2023/10/08 03:56:31;;;;;;;;;;;;;;;21.61;34.42;100248.28;5418820;32;34659;-65
2023/10/08 03:59:39;;;;;;;;;;;;;;;21.75;34.30;100244.37;5428443;32;34747;-70
2023/10/08 04:02:41;;;;;;;;;;;;;;;21.35;34.89;100267.44;5418426;32;34722;-70
2023/10/08 04:05:51;;;;;;;;;;;;;;;21.34;35.12;100268.41;5421826;32;35334;-65
2023/10/08 04:12:18;;;;;;;;;;;;;;;20.93;35.72;100263.91;5420312;32;34569;-66
2023/10/08 04:15:20;;;;;;;;;;;;;;;21.15;35.50;100252.22;5426325;32;35091;-65
2023/10/08 04:18:22;;;;;;;;;;;;;;;21.57;34.84;100252.19;5407670;32;35394;-70
2023/10/08 04:21:27;;;;;;;;;;;;;;;21.61;35.04;100250.97;5423109;32;35020;-65
2023/10/08 04:24:35;;;;;;;;;;;;;;;21.53;35.23;100258.81;5430842;32;34971;-65
2023/10/08 04:27:38;;;;;;;;;;;;;;;21.48;35.35;100243.16;5421847;32;35333;-66
2023/10/08 04:30:41;;;;;;;;;;;;;;;21.52;35.58;100239.25;5425736;32;34737;-65
2023/10/08 04:33:44;;;;;;;;;;;;;;;20.98;37.13;100244.78;5415532;32;35928;-70
2023/10/08 04:36:46;;;;;;;;;;;;;;;20.71;37.69;100230.13;5421072;32;34809;-69
2023/10/08 04:39:57;;;;;;;;;;;;;;;21.19;37.14;100248.31;5422372;32;35148;-66
2023/10/08 04:43:02;;;;;;;;;;;;;;;20.70;38.29;100252.47;5412736;32;35198;-71
2023/10/08 04:46:21;;;;;;;;;;;;;;;20.77;38.13;100248.28;5430593;32;33368;-65
2023/10/08 04:49:30;;;;;;;;;;;;;;;21.06;37.55;100237.84;5418212;32;35036;-70
2023/10/08 04:52:34;;;;;;;;;;;;;;;21.10;37.29;100244.59;5419920;32;34303;-65
2023/10/08 04:55:41;;;;;;;;;;;;;;;21.10;37.05;100239.25;5419093;32;34743;-64
2023/10/08 04:58:47;;;;;;;;;;;;;;;20.97;37.14;100254.63;5422249;32;32898;-70
2023/10/08 05:02:12;;;;;;;;;;;;;;;21.28;36.92;100249.34;5430309;32;34961;-70
2023/10/08 05:08:55;;;;;;;;;;;;;;;21.57;36.52;100222.78;5428492;32;34781;-66
2023/10/08 05:15:17;;;;;;;;;;;;;;;21.54;36.88;100237.28;5420827;32;35014;-65
2023/10/08 05:21:40;;;;;;;;;;;;;;;21.26;37.59;100254.84;5423314;32;34894;-65
2023/10/08 05:24:51;;;;;;;;;;;;;;;21.44;37.32;100257.75;5427413;32;35527;-66
2023/10/08 05:31:11;;;;;;;;;;;;;;;21.33;37.32;100281.91;5428896;32;35292;-65
2023/10/08 05:34:22;;;;;;;;;;;;;;;21.80;36.62;100277.78;5421613;32;35434;-65
2023/10/08 05:37:37;;;;;;;;;;;;;;;21.84;36.42;100281.06;5416789;32;34414;-66
2023/10/08 05:50:39;;;;;;;;;;;;;;;21.78;36.56;100287.78;5425653;32;34173;-70
2023/10/08 05:53:44;;;;;;;;;;;;;;;21.54;37.13;100290.75;5421281;32;35488;-71
2023/10/08 05:57:06;;;;;;;;;;;;;;;21.87;36.88;100288.78;5422300;32;36326;-70
2023/10/08 06:03:10;;;;;;;;;;;;;;;22.11;36.47;100293.84;5418982;32;35494;-70
2023/10/08 06:09:34;;;;;;;;;;;;;;;22.17;36.47;100306.69;5427358;32;34378;-66
2023/10/08 06:12:49;;;;;;;;;;;;;;;21.86;37.23;100305.84;5431026;32;34246;-72
2023/10/08 06:16:05;;;;;;;;;;;;;;;21.96;37.02;100312.09;5434203;32;34592;-65
2023/10/08 06:19:09;;;;;;;;;;;;;;;22.19;36.76;100315.41;5428451;32;35342;-65
2023/10/08 06:22:12;;;;;;;;;;;;;;;21.72;37.75;100319.56;5430911;32;34365;-71
2023/10/08 06:25:18;;;;;;;;;;;;;;;21.40;38.47;100319.66;5423452;32;34806;-70
2023/10/08 06:28:20;;;;;;;;;;;;;;;21.76;37.97;100329.84;5434382;32;34640;-66
2023/10/08 06:31:24;;;;;;;;;;;;;;;22.26;37.14;100329.94;5430016;32;34879;-64
2023/10/08 06:34:27;;;;;;;;;;;;;;;21.86;37.96;100330.75;5427248;32;34162;-65
2023/10/08 06:37:33;;;;;;;;;;;;;;;21.71;38.21;100348.16;5430111;32;34311;-65
2023/10/08 06:43:47;;;;;;;;;;;;;;;21.83;38.11;100348.87;5438490;32;34897;-68
2023/10/08 06:46:52;;;;;;;;;;;;;;;22.34;37.23;100342.66;5429951;32;34354;-65
2023/10/08 06:49:54;;;;;;;;;;;;;;;22.46;37.11;100336.19;5435899;32;36805;-65
2023/10/08 06:52:58;;;;;;;;;;;;;;;22.65;36.51;100336.25;5421475;32;35224;-69
2023/10/08 06:56:04;;;;;;;;;;;;;;;23.01;36.07;100343.78;5417866;32;34955;-71
2023/10/08 06:59:09;;;;;;;;;;;;;;;21.81;38.08;100345.50;5422429;32;139856;-71
2023/10/08 07:02:15;;;;;;;;;;;;;;;21.96;37.78;100341.53;5432979;32;36307;-69
2023/10/08 07:05:18;;;;;;;;;;;;;;;21.81;38.14;100326.78;5427915;32;35536;-71
2023/10/08 07:08:25;;;;;;;;;;;;;;;21.91;38.27;100317.00;5424150;32;36936;-70
2023/10/08 07:11:27;;;;;;;;;;;;;;;21.81;38.57;100329.47;5423400;32;35252;-65
2023/10/08 07:14:31;;;;;;;;;;;;;;;22.36;37.73;100335.34;5427670;32;35590;-65
2023/10/08 07:17:40;;;;;;;;;;;;;;;22.43;37.52;100328.47;5408543;32;34662;-69
2023/10/08 07:20:45;;;;;;;;;;;;;;;23.19;36.06;100323.34;5426969;32;34939;-70
2023/10/08 07:23:56;;;;;;;;;;;;;;;23.34;35.90;100315.69;5423100;32;34343;-70
2023/10/08 07:26:59;;;;;;;;;;;;;;;23.10;36.22;100316.97;5422136;32;35266;-70
2023/10/08 07:30:10;;;;;;;;;;;;;;;23.59;35.51;100314.22;5429643;32;35331;-70
2023/10/08 07:33:18;;;;;;;;;;;;;;;23.54;35.44;100319.16;5432453;32;35596;-65
2023/10/08 07:36:20;;;;;;;;;;;;;;;24.04;34.79;100333.16;5426220;32;34929;-66
2023/10/08 07:42:27;;;;;;;;;;;;;;;23.71;35.64;100323.81;5437169;32;34313;-66
2023/10/08 07:45:35;;;;;;;;;;;;;;;23.04;37.14;100320.22;5423074;32;35145;-65
2023/10/08 07:48:43;;;;;;;;;;;;;;;23.03;37.87;100318.53;5422133;32;35775;-66
2023/10/08 07:51:51;;;;;;;;;;;;;;;23.36;37.19;100319.06;5426251;32;34938;-65
2023/10/08 07:54:53;;;;;;;;;;;;;;;22.77;38.89;100320.03;5418235;32;35274;-71
2023/10/08 07:57:55;;;;;;;;;;;;;;;22.69;39.43;100315.37;5424983;32;34980;-70
2023/10/08 08:01:00;;;;;;;;;;;;;;;22.82;39.76;100310.59;5418985;32;34847;-65
2023/10/08 08:04:02;;;;;;;;;;;;;;;23.21;39.05;100321.34;5423764;32;35982;-70
2023/10/08 08:07:05;;;;;;;;;;;;;;;23.00;39.42;100320.66;5434809;32;35041;-65
2023/10/08 08:10:10;;;;;;;;;;;;;;;22.44;41.03;100320.28;5428981;32;35374;-65
2023/10/08 08:13:20;;;;;;;;;;;;;;;22.31;41.35;100317.00;5438303;32;34839;-70
2023/10/08 08:16:22;;;;;;;;;;;;;;;22.23;41.77;100322.22;5403492;32;35637;-66
2023/10/08 08:19:24;;;;;;;;;;;;;;;22.17;41.98;100328.94;5426594;32;34362;-70
2023/10/08 08:22:31;;;;;;;;;;;;;;;22.41;41.65;100331.28;5422877;32;35003;-70
2023/10/08 08:25:46;;;;;;;;;;;;;;;21.96;42.50;100320.12;5421227;32;34940;-66
2023/10/08 08:28:48;;;;;;;;;;;;;;;22.25;41.71;100328.25;5436995;32;34909;-69
2023/10/08 08:31:53;;;;;;;;;;;;;;;22.76;40.85;100334.44;5407222;32;34825;-71
2023/10/08 08:34:55;;;;;;;;;;;;;;;22.68;40.84;100346.69;5433145;32;35274;-70
2023/10/08 08:37:57;;;;;;;;;;;;;;;22.51;41.41;100354.53;5417426;32;35481;-70
2023/10/08 08:41:12;;;;;;;;;;;;;;;22.64;41.34;100352.47;5427351;32;34766;-67
2023/10/08 08:44:14;;;;;;;;;;;;;;;22.71;41.15;100329.47;5426901;32;35335;-71
2023/10/08 08:47:19;;;;;;;;;;;;;;;22.72;41.52;100331.16;5426309;32;35849;-66
2023/10/08 08:50:26;;;;;;;;;;;;;;;22.23;42.69;100343.62;5426595;32;35640;-71
2023/10/08 08:53:36;;;;;;;;;;;;;;;22.58;42.01;100340.47;5427938;32;34829;-70
2023/10/08 08:57:10;;;;;;;;;;;;;;;23.36;40.54;100360.13;5408882;32;33135;-66
2023/10/08 09:00:41;;;;;;;;;;;;;;;22.96;41.52;100371.00;5397389;32;35219;-65
2023/10/08 09:04:08;;;;;;;;;;;;;;;22.58;42.31;100374.44;5407290;32;34038;-70
2023/10/08 09:07:34;;;;;;;;;;;;;;;22.32;42.95;100361.53;5410033;32;35107;-66
2023/10/08 09:10:37;;;;;;;;;;;;;;;22.69;42.63;100380.53;5420620;32;34259;-65
2023/10/08 09:13:40;;;;;;;;;;;;;;;23.15;41.82;100375.53;5418881;32;34433;-66
2023/10/08 09:16:43;;;;;;;;;;;;;;;23.51;41.19;100365.91;5409192;32;35044;-70
2023/10/08 09:19:45;;;;;;;;;;;;;;;23.32;41.53;100382.03;5407489;32;34276;-71
2023/10/08 09:23:11;;;;;;;;;;;;;;;22.88;42.68;100403.88;5420922;32;34764;-67
2023/10/08 09:26:14;;;;;;;;;;;;;;;22.88;42.57;100403.88;5419364;32;34804;-66
2023/10/08 09:29:16;;;;;;;;;;;;;;;22.86;42.58;100415.66;5407182;32;35493;-67
2023/10/08 09:32:23;;;;;;;;;;;;;;;22.66;43.25;100420.97;5411434;32;34888;-66
2023/10/08 09:35:26;;;;;;;;;;;;;;;22.16;44.84;100428.97;5416000;32;34166;-65
2023/10/08 09:38:30;;;;;;;;;;;;;;;22.49;44.21;100447.56;5411723;32;34742;-66
2023/10/08 09:41:32;;;;;;;;;;;;;;;21.99;45.52;100445.59;5419269;32;35017;-70
2023/10/08 09:44:34;;;;;;;;;;;;;;;22.52;44.50;100461.53;5421492;32;34524;-66
2023/10/08 09:47:38;;;;;;;;;;;;;;;22.21;45.54;100466.03;5421269;32;34141;-71
2023/10/08 09:50:41;;;;;;;;;;;;;;;22.31;45.31;100448.19;5419426;32;35055;-66
2023/10/08 09:53:48;;;;;;;;;;;;;;;22.16;45.73;100452.22;5408545;32;34585;-70
2023/10/08 09:56:50;;;;;;;;;;;;;;;22.02;45.97;100461.38;5406590;32;35903;-68
2023/10/08 09:59:53;;;;;;;;;;;;;;;21.74;46.64;100480.78;5429915;32;34891;-66
2023/10/08 10:02:55;;;;;;;;;;;;;;;22.21;45.96;100484.78;5423035;32;34310;-71
2023/10/08 10:06:00;;;;;;;;;;;;;;;21.97;46.51;100490.38;5423359;32;35103;-67
2023/10/08 10:09:08;;;;;;;;;;;;;;;22.39;45.60;100496.56;5434072;32;35325;-71
2023/10/08 10:12:11;;;;;;;;;;;;;;;21.66;47.61;100505.50;5422849;32;34271;-69
2023/10/08 10:15:14;;;;;;;;;;;;;;;21.89;47.03;100522.28;5427260;32;34736;-66
2023/10/08 10:18:33;;;;;;;;;;;;;;;21.78;47.72;100520.53;5422980;32;34437;-70
2023/10/08 10:21:35;;;;;;;;;;;;;;;21.78;47.66;100519.66;5425572;32;34830;-71
2023/10/08 10:24:37;;;;;;;;;;;;;;;21.92;47.23;100516.69;5409546;32;35122;-70
2023/10/08 10:27:39;;;;;;;;;;;;;;;21.34;48.90;100513.50;5413083;32;36398;-67
2023/10/08 10:30:42;;;;;;;;;;;;;;;21.63;48.23;100525.28;5427339;32;34877;-72
2023/10/08 10:33:46;;;;;;;;;;;;;;;21.55;48.44;100540.28;5429502;32;34828;-65
2023/10/08 10:36:49;;;;;;;;;;;;;;;21.33;48.98;100534.03;5423176;32;34694;-70
2023/10/08 10:39:53;;;;;;;;;;;;;;;21.78;48.07;100511.66;5423734;32;34330;-71
2023/10/08 10:42:56;;;;;;;;;;;;;;;22.69;45.33;100511.81;5414472;32;34767;-71
2023/10/08 10:49:22;;;;;;;;;;;;;;;22.35;45.23;100545.19;5416647;32;35020;-70
2023/10/08 10:52:31;;;;;;;;;;;;;;;21.30;47.69;100541.44;5433117;32;35213;-69
2023/10/08 10:55:34;;;;;;;;;;;;;;;21.69;46.50;100545.34;5418998;32;34940;-66
2023/10/08 10:58:40;;;;;;;;;;;;;;;21.68;45.13;100549.00;5407832;32;36262;-66
2023/10/08 11:01:46;;;;;;;;;;;;;;;21.12;45.79;100573.16;5414160;32;37976;-65
2023/10/08 11:04:49;;;;;;;;;;;;;;;21.72;43.49;100571.84;5418511;32;34222;-70
2023/10/08 11:07:51;;;;;;;;;;;;;;;20.63;46.00;100566.37;5430627;32;35058;-71
2023/10/08 11:10:58;;;;;;;;;;;;;;;20.22;47.00;100556.19;5421936;32;35535;-70
2023/10/08 11:14:00;;;;;;;;;;;;;;;21.00;45.53;100567.00;5426851;32;34406;-65
2023/10/08 11:17:10;;;;;;;;;;;;;;;21.49;44.33;100570.22;5419905;32;34628;-67
2023/10/08 11:20:23;;;;;;;;;;;;;;;21.32;44.30;100580.47;5415170;32;34608;-67
2023/10/08 11:23:32;;;;;;;;;;;;;;;22.22;42.34;100577.50;5426868;32;35048;-65
2023/10/08 11:26:38;;;;;;;;;;;;;;;20.71;44.43;100587.97;5430210;32;36228;-66
2023/10/08 11:29:42;;;;;;;;;;;;;;;20.37;44.32;100592.38;5427510;32;35427;-66
2023/10/08 11:32:48;;;;;;;;;;;;;;;20.48;44.25;100591.56;5420283;32;35359;-70
2023/10/08 11:36:06;;;;;;;;;;;;;;;20.44;43.91;100598.94;5425825;32;34924;-69
2023/10/08 11:39:11;;;;;;;;;;;;;;;20.09;44.06;100606.94;5431338;32;35193;-66
2023/10/08 11:45:39;;;;;;;;;;;;;;;19.09;44.09;100601.88;5424796;32;35379;-66
2023/10/08 11:48:46;;;;;;;;;;;;;;;19.17;44.06;100623.47;5422475;32;34789;-65
2023/10/08 11:51:51;;;;;;;;;;;;;;;19.35;43.74;100639.97;5420088;32;35649;-70
2023/10/08 11:54:53;;;;;;;;;;;;;;;19.47;43.98;100631.94;5419444;32;36057;-65
2023/10/08 11:57:57;;;;;;;;;;;;;;;20.04;42.66;100624.31;5419939;32;35478;-70
2023/10/08 12:01:03;;;;;;;;;;;;;;;20.69;41.44;100629.12;5421972;32;34662;-70
2023/10/08 12:04:12;;;;;;;;;;;;;;;20.22;42.57;100641.56;5421621;32;34767;-65
2023/10/08 12:07:17;;;;;;;;;;;;;;;19.73;43.31;100643.41;5432851;32;33958;-71
2023/10/08 12:10:22;;;;;;;;;;;;;;;19.75;43.38;100652.16;5416956;32;35037;-74
2023/10/08 12:13:28;;;;;;;;;;;;;;;18.69;45.56;100679.22;5422835;32;34749;-67
2023/10/08 12:16:35;;;;;;;;;;;;;;;18.51;45.65;100672.44;5428760;32;34259;-67
2023/10/08 12:19:40;;;;;;;;;;;;;;;18.54;45.28;100680.22;5433899;32;34206;-74
2023/10/08 12:22:43;;;;;;;;;;;;;;;19.00;44.77;100690.41;5428966;32;34099;-72
2023/10/08 12:25:51;;;;;;;;;;;;;;;18.16;46.12;100701.37;5424016;32;34902;-73
2023/10/08 12:28:55;;;;;;;;;;;;;;;18.37;45.49;100694.66;5426151;32;35013;-74
2023/10/08 12:31:59;;;;;;;;;;;;;;;18.50;45.13;100706.19;5426111;32;34676;-67
2023/10/08 12:35:01;;;;;;;;;;;;;;;18.44;44.69;100701.28;5418282;32;36065;-67
2023/10/08 12:38:05;;;;;;;;;;;;;;;17.86;45.95;100710.41;5419563;32;34321;-68
2023/10/08 12:41:13;;;;;;;;;;;;;;;18.13;45.57;100697.97;5416974;32;35279;-73
2023/10/08 12:44:15;;;;;;;;;;;;;;;18.09;45.75;100698.28;5427597;32;34774;-70
2023/10/08 12:47:18;;;;;;;;;;;;;;;17.76;46.18;100709.28;5423676;32;34818;-73
2023/10/08 12:50:29;;;;;;;;;;;;;;;17.29;46.17;100721.06;5427156;32;35091;-74
2023/10/08 12:53:36;;;;;;;;;;;;;;;17.55;44.86;100714.13;5424802;32;34379;-66
2023/10/08 12:56:44;;;;;;;;;;;;;;;17.73;42.51;100725.44;5425895;32;34822;-74
2023/10/08 12:59:51;;;;;;;;;;;;;;;17.74;42.87;100737.78;5430298;32;34812;-66
2023/10/08 13:02:54;;;;;;;;;;;;;;;17.81;42.07;100729.31;5424294;32;35064;-67
2023/10/08 13:06:03;;;;;;;;;;;;;;;17.38;42.78;100732.91;5434524;32;34840;-73
2023/10/08 13:09:12;;;;;;;;;;;;;;;17.82;41.93;100741.66;5427655;32;35515;-67
2023/10/08 13:12:15;;;;;;;;;;;;;;;17.81;41.95;100742.59;5421396;32;35169;-73
2023/10/08 13:15:17;;;;;;;;;;;;;;;17.47;42.81;100757.12;5428712;32;35001;-73
2023/10/08 13:18:19;;;;;;;;;;;;;;;17.46;43.03;100747.47;5428247;32;34755;-74
2023/10/08 13:21:24;;;;;;;;;;;;;;;17.08;43.72;100738.34;5413917;32;34687;-74
2023/10/08 13:24:28;;;;;;;;;;;;;;;16.83;43.93;100765.50;5422607;32;34228;-73
2023/10/08 13:27:30;;;;;;;;;;;;;;;16.75;44.32;100748.22;5426696;32;34698;-67
2023/10/08 13:30:33;;;;;;;;;;;;;;;17.36;43.17;100753.44;5422947;32;34244;-74
2023/10/08 13:33:39;;;;;;;;;;;;;;;16.59;44.59;100757.12;5405606;32;34368;-65
2023/10/08 13:36:42;;;;;;;;;;;;;;;16.84;44.04;100756.56;5427424;32;34727;-73
2023/10/08 13:39:44;;;;;;;;;;;;;;;17.13;43.73;100752.16;5425720;32;35334;-72
2023/10/08 13:42:46;;;;;;;;;;;;;;;16.71;44.78;100752.00;5432056;32;36009;-66
2023/10/08 13:45:48;;;;;;;;;;;;;;;16.48;45.39;100745.31;5424344;32;35671;-66
2023/10/08 13:48:51;;;;;;;;;;;;;;;16.96;43.95;100756.69;5418944;32;34372;-66
2023/10/08 13:51:56;;;;;;;;;;;;;;;16.73;44.28;100755.41;5427350;32;35261;-66
2023/10/08 13:54:59;;;;;;;;;;;;;;;16.95;43.23;100768.28;5420117;32;35901;-73
2023/10/08 13:58:02;;;;;;;;;;;;;;;16.87;43.50;100783.78;5425706;32;35524;-72
2023/10/08 14:01:18;;;;;;;;;;;;;;;17.17;42.78;100770.47;5425035;32;34744;-74
2023/10/08 14:04:26;;;;;;;;;;;;;;;17.75;41.71;100768.72;5427425;32;35757;-73
2023/10/08 14:07:29;;;;;;;;;;;;;;;16.73;43.90;100775.78;5433946;32;36021;-73
2023/10/08 14:10:31;;;;;;;;;;;;;;;16.67;44.25;100762.81;5412714;32;35326;-73
2023/10/08 14:13:34;;;;;;;;;;;;;;;17.14;43.13;100769.84;5438045;32;34447;-74
2023/10/08 14:16:36;;;;;;;;;;;;;;;16.76;43.80;100781.78;5422780;32;34232;-65
2023/10/08 14:19:43;;;;;;;;;;;;;;;16.68;43.49;100789.31;5426795;32;34714;-66
2023/10/08 14:22:47;;;;;;;;;;;;;;;16.90;42.80;100794.22;5422038;32;34737;-74
2023/10/08 14:25:51;;;;;;;;;;;;;;;17.66;41.57;100794.06;5421839;32;34236;-73
2023/10/08 14:28:57;;;;;;;;;;;;;;;16.84;43.00;100793.75;5437865;32;35097;-66
2023/10/08 14:31:59;;;;;;;;;;;;;;;16.74;42.82;100802.25;5422169;32;35722;-72
2023/10/08 14:45:10;;;;;;;;;;;;;;;16.99;41.02;100824.69;5427278;32;34268;-74
2023/10/08 14:48:13;;;;;;;;;;;;;;;16.95;41.05;100828.47;5423282;32;34503;-74
2023/10/08 14:51:20;;;;;;;;;;;;;;;16.65;41.20;100837.22;5431156;32;34250;-67
2023/10/08 14:54:46;;;;;;;;;;;;;;;16.74;41.08;100850.03;5423786;32;34203;-65
2023/10/08 14:57:52;;;;;;;;;;;;;;;16.97;40.76;100832.75;5420268;32;35574;-66
2023/10/08 15:00:54;;;;;;;;;;;;;;;16.27;41.59;100851.81;5411714;32;34421;-67
2023/10/08 15:03:57;;;;;;;;;;;;;;;17.19;40.33;100837.63;5422315;32;34827;-72
2023/10/08 15:06:59;;;;;;;;;;;;;;;16.76;40.71;100864.06;5413445;32;34645;-66
2023/10/08 15:10:02;;;;;;;;;;;;;;;17.22;40.00;100856.06;5418006;32;35624;-74
2023/10/08 15:13:06;;;;;;;;;;;;;;;17.44;39.60;100858.28;5432496;32;35792;-73
2023/10/08 15:16:08;;;;;;;;;;;;;;;17.10;40.24;100863.91;5423676;32;34408;-67
2023/10/08 15:19:11;;;;;;;;;;;;;;;16.88;40.61;100888.19;5422398;32;35130;-73
2023/10/08 15:22:14;;;;;;;;;;;;;;;16.87;40.98;100884.66;5427526;32;35259;-73
2023/10/08 15:25:17;;;;;;;;;;;;;;;16.42;41.95;100893.38;5422328;32;34796;-74
2023/10/08 15:28:19;;;;;;;;;;;;;;;16.81;41.58;100910.69;5427190;32;35289;-67
2023/10/08 15:31:22;;;;;;;;;;;;;;;16.46;42.54;100926.78;5421036;32;35150;-65
2023/10/08 15:34:26;;;;;;;;;;;;;;;16.09;43.41;100934.06;5419487;32;34516;-66
2023/10/08 15:37:40;;;;;;;;;;;;;;;16.45;42.71;100936.53;5422753;32;34717;-67
2023/10/08 15:40:44;;;;;;;;;;;;;;;16.46;42.89;100935.59;5412899;32;34703;-66
2023/10/08 15:43:58;;;;;;;;;;;;;;;16.67;42.74;100954.75;5408451;32;34720;-73
2023/10/08 15:47:00;;;;;;;;;;;;;;;16.69;42.80;100952.06;5425184;32;34243;-65
2023/10/08 15:50:02;;;;;;;;;;;;;;;16.66;42.74;100960.16;5412365;32;35609;-66
2023/10/08 15:53:04;;;;;;;;;;;;;;;16.66;42.63;100974.28;5407011;32;35519;-74
2023/10/08 15:56:07;;;;;;;;;;;;;;;16.97;41.89;100980.59;5403622;32;34702;-74
2023/10/08 15:59:11;;;;;;;;;;;;;;;16.44;43.24;100982.56;5409156;32;35042;-71
2023/10/08 16:02:14;;;;;;;;;;;;;;;16.34;43.11;100993.75;5420602;32;35269;-72
2023/10/08 16:05:16;;;;;;;;;;;;;;;16.11;43.78;101003.81;5425857;32;35374;-72
2023/10/08 16:08:19;;;;;;;;;;;;;;;16.48;43.04;100999.16;5423828;32;34367;-66
2023/10/08 16:11:21;;;;;;;;;;;;;;;16.27;43.15;100995.03;5418791;32;34604;-73
2023/10/08 16:14:23;;;;;;;;;;;;;;;15.79;44.09;100994.84;5429833;32;35501;-71
2023/10/08 16:17:30;;;;;;;;;;;;;;;15.99;43.79;100985.87;5422114;32;34267;-65
2023/10/08 16:20:33;;;;;;;;;;;;;;;16.00;43.38;100979.63;5426236;32;33508;-72
2023/10/08 16:23:35;;;;;;;;;;;;;;;15.91;44.05;100993.37;5408383;32;34714;-72
2023/10/08 16:26:41;;;;;;;;;;;;;;;15.71;44.03;101002.31;5426112;32;34897;-67
2023/10/08 16:29:43;;;;;;;;;;;;;;;15.76;44.20;101002.09;5422227;32;34618;-66
2023/10/08 16:32:45;;;;;;;;;;;;;;;15.86;43.38;101000.69;5421108;32;34289;-72
2023/10/08 16:35:51;;;;;;;;;;;;;;;15.58;44.18;101031.19;5399543;32;34429;-66
2023/10/08 16:38:53;;;;;;;;;;;;;;;15.86;43.53;101032.50;5421663;32;35184;-66
2023/10/08 16:41:57;;;;;;;;;;;;;;;15.90;43.33;101028.75;5426960;32;34374;-67
2023/10/08 16:44:59;;;;;;;;;;;;;;;15.15;44.74;101043.87;5421905;32;35161;-66
2023/10/08 16:48:01;;;;;;;;;;;;;;;14.94;44.71;101046.66;5431473;32;35404;-65
2023/10/08 16:51:04;;;;;;;;;;;;;;;15.21;43.77;101050.69;5425388;32;34180;-75
2023/10/08 16:54:13;;;;;;;;;;;;;;;15.52;43.10;101058.00;5398808;32;35565;-66
2023/10/08 16:57:16;;;;;;;;;;;;;;;15.27;43.25;101055.69;5431885;32;35139;-66